26°C Temp
23°C Dewpoint
84% Humidity
Temperature
8 KM/H
5 MPH
4 KTS
Calm
Due North

Wind Speed
Thunderstorm
Conditions
Pressure 1010 (hPa) - 29.82 (in)
Visibility 1.2 (mi) - 2.0 (km)

Current Conditions
WSSL
Location Seletar 6(km)
Metar :WSSL 151120Z VRB04KT 2000 +TSRA FEW010 FEW014CB SCT015TCU 26/23 Q1010
Sat 15th December 19:20 pm

Airport
  Metar Aviation API Data Provided by https://www.checkwx.com/ PHP scripts by weather34.com ©2018